createdAt,value
2022-08-12T00:02:32.053Z,2.60
2022-08-12T00:07:49.026Z,2.90
2022-08-12T00:13:04.212Z,3.40
2022-08-12T00:18:15.897Z,4.15
2022-08-12T00:23:27.443Z,3.53
2022-08-12T00:28:39.379Z,3.00
2022-08-12T00:33:51.690Z,2.90
2022-08-12T00:39:04.243Z,2.90
2022-08-12T00:43:59.573Z,2.72
2022-08-12T00:48:53.139Z,3.42
2022-08-12T00:53:47.065Z,4.32
2022-08-12T00:58:51.225Z,3.95
2022-08-12T01:04:14.554Z,4.00
2022-08-12T01:09:26.228Z,3.72
2022-08-12T01:14:21.130Z,3.20
2022-08-12T01:19:15.298Z,2.90
2022-08-12T01:24:45.653Z,2.67
2022-08-12T01:29:44.276Z,2.50
2022-08-12T01:34:39.535Z,2.17
2022-08-12T01:40:33.881Z,2.20
2022-08-12T01:44:57.407Z,1.95
2022-08-12T01:50:11.895Z,1.98
2022-08-12T01:55:07.769Z,2.25
2022-08-12T02:00:12.733Z,2.38
2022-08-12T02:05:42.955Z,2.45
2022-08-12T02:11:19.815Z,2.65
2022-08-12T02:16:18.484Z,2.55
2022-08-12T02:21:48.885Z,2.25
2022-08-12T02:27:21.525Z,3.03
2022-08-12T02:32:54.465Z,2.53
2022-08-12T02:37:50.840Z,2.58
2022-08-12T02:43:06.171Z,2.70
2022-08-12T02:48:23.411Z,2.70
2022-08-12T02:53:16.003Z,2.38
2022-08-12T02:58:12.687Z,2.80
2022-08-12T03:03:10.166Z,2.63
2022-08-12T03:08:05.939Z,2.20
2022-08-12T03:13:07.282Z,2.60
2022-08-12T03:18:26.887Z,2.53
2022-08-12T03:23:30.143Z,2.30
2022-08-12T03:28:43.785Z,2.33
2022-08-12T03:33:38.841Z,2.20
2022-08-12T03:38:33.490Z,2.20
2022-08-12T03:43:50.872Z,2.00
2022-08-12T03:49:03.000Z,2.10
2022-08-12T03:54:14.930Z,2.30
2022-08-12T03:59:27.271Z,2.45
2022-08-12T04:04:23.628Z,2.60
2022-08-12T04:09:23.317Z,3.40
2022-08-12T04:14:21.075Z,3.10
2022-08-12T04:19:14.276Z,2.92
2022-08-12T04:24:10.452Z,3.20
2022-08-12T04:29:04.147Z,3.83
2022-08-12T04:33:58.298Z,4.95
2022-08-12T04:38:55.430Z,4.53
2022-08-12T04:43:54.584Z,5.03
2022-08-12T04:48:55.480Z,5.40
2022-08-12T04:53:49.493Z,4.78
2022-08-12T04:58:43.349Z,4.43
2022-08-12T05:03:46.718Z,4.75
2022-08-12T05:08:42.023Z,5.65
2022-08-12T05:13:38.355Z,5.05
2022-08-12T05:18:30.712Z,5.28
2022-08-12T05:23:24.402Z,6.70
2022-08-12T05:28:18.424Z,5.88
2022-08-12T05:33:12.793Z,5.47
2022-08-12T05:38:35.445Z,6.78
2022-08-12T05:43:29.154Z,3.80
2022-08-12T05:48:22.652Z,2.90
2022-08-12T05:53:15.788Z,2.60
2022-08-12T06:03:06.851Z,2.42
2022-08-12T06:08:03.088Z,2.30
2022-08-12T06:12:56.664Z,2.40
2022-08-12T06:17:49.876Z,1.88
2022-08-12T06:22:48.279Z,2.47
2022-08-12T06:28:06.724Z,2.40
2022-08-12T06:33:11.805Z,2.67
2022-08-12T06:38:16.172Z,2.08
2022-08-12T06:43:09.373Z,2.30
2022-08-12T06:48:09.909Z,2.40
2022-08-12T06:53:05.543Z,3.20
2022-08-12T06:58:07.605Z,2.58
2022-08-12T07:03:16.332Z,2.30
2022-08-12T07:08:17.400Z,2.40
2022-08-12T07:13:10.520Z,2.63
2022-08-12T07:18:17.138Z,2.20
2022-08-12T07:23:11.925Z,3.13
2022-08-12T07:28:16.365Z,2.30
2022-08-12T07:33:10.901Z,2.33
2022-08-12T07:38:04.152Z,2.38
2022-08-12T07:42:57.812Z,2.15
2022-08-12T07:47:51.679Z,2.08
2022-08-12T07:52:48.339Z,1.70
2022-08-12T07:57:58.136Z,2.00
2022-08-12T08:02:53.557Z,2.03
2022-08-12T09:06:17.067Z,2.00
2022-08-12T09:18:41.102Z,2.40
2022-08-12T09:23:59.956Z,2.05
2022-08-12T09:28:53.272Z,2.40
2022-08-12T09:34:28.906Z,2.45
2022-08-12T09:39:02.816Z,2.47
2022-08-12T09:44:39.354Z,2.35
2022-08-12T09:49:41.992Z,2.70
2022-08-12T09:54:36.995Z,2.20
2022-08-12T10:00:17.785Z,2.30
2022-08-12T10:04:52.642Z,2.45
2022-08-12T10:09:58.072Z,2.00
2022-08-12T10:14:54.798Z,2.20
2022-08-12T10:19:52.228Z,2.30
2022-08-12T10:25:17.456Z,2.20
2022-08-12T10:30:42.135Z,2.30
2022-08-12T10:35:37.862Z,1.92
2022-08-12T10:40:33.794Z,1.90
2022-08-12T10:45:30.408Z,2.15
2022-08-12T10:50:35.734Z,2.10
2022-08-12T10:55:40.756Z,2.08
2022-08-12T11:00:55.093Z,1.98
2022-08-12T11:07:10.016Z,1.90
2022-08-12T11:11:09.137Z,1.60
2022-08-12T11:16:19.558Z,1.80
2022-08-12T11:21:16.413Z,2.00
2022-08-12T11:26:11.351Z,2.00
2022-08-12T11:31:06.523Z,2.05
2022-08-12T11:36:15.091Z,1.98
2022-08-12T11:41:09.780Z,1.70
2022-08-12T11:46:04.201Z,1.98
2022-08-12T11:50:58.708Z,1.70
2022-08-12T11:55:53.007Z,2.30
2022-08-12T12:06:01.661Z,1.95
2022-08-12T12:10:56.469Z,1.75
2022-08-12T12:15:49.874Z,1.80
2022-08-12T12:20:48.307Z,1.50
2022-08-12T12:25:59.493Z,1.67
2022-08-12T12:30:59.699Z,1.35
2022-08-12T12:36:16.541Z,1.60
2022-08-12T12:41:16.585Z,1.60
2022-08-12T12:46:11.095Z,1.27
2022-08-12T12:52:06.814Z,1.42
2022-08-12T12:56:43.346Z,2.03
2022-08-12T13:01:42.083Z,1.73
2022-08-12T13:06:35.801Z,1.65
2022-08-12T13:11:38.990Z,1.77
2022-08-12T13:16:36.367Z,1.75
2022-08-12T13:21:59.210Z,1.90
2022-08-12T13:26:53.913Z,1.65
2022-08-12T13:32:19.142Z,1.83
2022-08-12T13:37:09.876Z,1.70
2022-08-12T13:42:14.291Z,1.60
2022-08-12T13:47:18.646Z,1.60
2022-08-12T13:52:15.133Z,2.08
2022-08-12T13:57:11.063Z,1.92
2022-08-12T14:02:13.854Z,1.65
2022-08-12T14:07:08.564Z,1.40
2022-08-12T14:12:05.143Z,1.85
2022-08-12T14:17:05.573Z,1.60
2022-08-12T14:22:04.504Z,1.70
2022-08-12T14:27:02.613Z,1.50
2022-08-12T14:31:56.533Z,1.73
2022-08-12T14:36:50.931Z,1.40
2022-08-12T14:41:50.349Z,1.52
2022-08-12T14:46:56.499Z,1.65
2022-08-12T14:52:54.092Z,1.75
2022-08-12T14:57:20.604Z,1.73
2022-08-12T15:02:21.374Z,1.33
2022-08-12T15:07:34.433Z,1.40
2022-08-12T15:12:30.252Z,1.67
2022-08-12T15:17:37.945Z,1.27
2022-08-12T15:22:53.639Z,1.55
2022-08-12T15:28:03.800Z,1.50
2022-08-12T15:32:59.507Z,1.48
2022-08-12T15:38:09.988Z,1.60
2022-08-12T15:43:08.245Z,1.70
2022-08-12T15:48:17.099Z,1.40
2022-08-12T15:53:38.228Z,1.40
2022-08-12T15:58:33.906Z,2.03
2022-08-12T16:03:46.209Z,1.55
2022-08-12T16:08:44.660Z,1.10
2022-08-12T16:13:38.604Z,1.40
2022-08-12T16:18:38.807Z,1.98
2022-08-12T16:23:51.679Z,1.52
2022-08-12T16:28:50.356Z,1.92
2022-08-12T16:33:58.695Z,1.20
2022-08-12T16:38:55.446Z,1.27
2022-08-12T16:43:50.047Z,1.40
2022-08-12T16:48:45.270Z,1.63
2022-08-12T16:53:43.827Z,1.38
2022-08-12T16:58:40.224Z,1.70
2022-08-12T17:03:37.473Z,1.77
2022-08-12T17:08:31.399Z,1.83
2022-08-12T17:13:26.996Z,1.73
2022-08-12T17:18:43.487Z,1.50
2022-08-12T17:23:48.530Z,1.65
2022-08-12T17:28:52.204Z,2.78
2022-08-12T17:33:47.228Z,1.83
2022-08-12T17:38:42.035Z,2.55
2022-08-12T17:43:56.950Z,3.80
2022-08-12T17:48:55.657Z,3.83
2022-08-12T17:54:10.614Z,4.10
2022-08-12T17:59:09.906Z,3.95
2022-08-12T18:04:21.596Z,4.13
2022-08-12T18:09:17.401Z,3.55
2022-08-12T18:14:11.194Z,2.97
2022-08-12T18:19:10.197Z,3.15
2022-08-12T18:24:05.112Z,3.47
2022-08-12T18:29:19.432Z,3.00
2022-08-12T18:34:15.957Z,2.85
2022-08-12T18:39:13.711Z,3.13
2022-08-12T18:44:12.136Z,3.00
2022-08-12T18:49:18.745Z,2.88
2022-08-12T18:54:14.776Z,3.25
2022-08-12T19:00:01.681Z,3.57
2022-08-12T19:04:49.213Z,3.10
2022-08-12T19:09:58.599Z,2.90
2022-08-12T19:15:03.889Z,2.88
2022-08-12T19:20:02.039Z,2.95
2022-08-12T19:25:14.106Z,2.70
2022-08-12T19:36:14.339Z,3.00
2022-08-12T19:40:31.022Z,2.63
2022-08-12T19:45:27.908Z,2.60
2022-08-12T19:50:39.316Z,2.47
2022-08-12T19:55:41.395Z,2.83
2022-08-12T20:00:38.805Z,3.70
2022-08-12T20:06:04.471Z,3.30
2022-08-12T20:10:51.009Z,3.50
2022-08-12T20:15:45.507Z,4.22
2022-08-12T20:20:39.531Z,3.95
2022-08-12T20:25:51.914Z,4.30
2022-08-12T20:30:53.533Z,3.72
2022-08-12T20:36:13.375Z,4.63
2022-08-12T20:41:19.031Z,4.22
2022-08-12T20:46:15.222Z,3.67
2022-08-12T20:51:19.094Z,3.88
2022-08-12T20:56:47.761Z,3.85
2022-08-12T21:01:46.511Z,3.28
2022-08-12T21:07:08.157Z,3.72
2022-08-12T21:12:05.015Z,2.78
2022-08-12T21:17:19.254Z,3.75
2022-08-12T21:22:32.310Z,2.88
2022-08-12T21:27:58.600Z,2.67
2022-08-12T21:32:44.868Z,2.40
2022-08-12T21:37:42.265Z,2.15
2022-08-12T21:42:50.998Z,2.97
2022-08-12T21:47:46.392Z,3.10
2022-08-12T21:52:42.390Z,3.20
2022-08-12T21:57:48.145Z,3.83
2022-08-12T22:03:04.856Z,3.42
2022-08-12T22:08:00.214Z,3.43
2022-08-12T22:13:00.938Z,3.22
2022-08-12T22:17:58.076Z,3.55
2022-08-12T22:22:56.016Z,4.22
2022-08-12T22:28:10.931Z,4.15
2022-08-12T22:33:07.923Z,3.67
2022-08-12T22:38:11.106Z,3.85
2022-08-12T22:43:25.140Z,4.65
2022-08-12T22:48:26.419Z,5.20
2022-08-12T22:53:22.006Z,5.80
2022-08-12T22:58:23.785Z,5.75
2022-08-12T23:08:37.141Z,5.35
2022-08-12T23:13:55.311Z,5.47
2022-08-12T23:18:50.743Z,4.50
2022-08-12T23:24:09.470Z,4.40
2022-08-12T23:29:30.149Z,2.80
2022-08-12T23:34:37.752Z,2.28
2022-08-12T23:40:13.470Z,2.17
2022-08-12T23:44:45.301Z,2.35
2022-08-12T23:49:56.345Z,2.60
2022-08-12T23:54:58.425Z,2.55
